createdAt,value
2023-04-02T00:00:11.293Z,4.30
2023-04-02T00:02:49.972Z,4.20
2023-04-02T00:05:18.259Z,4.20
2023-04-02T00:07:53.452Z,4.10
2023-04-02T00:10:37.982Z,4.20
2023-04-02T00:13:11.148Z,4.20
2023-04-02T00:15:45.809Z,4.10
2023-04-02T00:18:21.455Z,4.10
2023-04-02T00:21:23.001Z,4.10
2023-04-02T00:23:50.508Z,4.00
2023-04-02T00:26:25.446Z,3.90
2023-04-02T00:28:55.332Z,3.90
2023-04-02T00:31:23.230Z,3.80
2023-04-02T00:33:50.969Z,3.80
2023-04-02T00:36:20.263Z,3.80
2023-04-02T00:38:48.868Z,3.80
2023-04-02T00:41:23.897Z,3.80
2023-04-02T00:43:51.956Z,3.70
2023-04-02T00:46:24.307Z,3.70
2023-04-02T00:48:59.841Z,3.70
2023-04-02T00:51:32.394Z,3.70
2023-04-02T00:54:04.236Z,3.70
2023-04-02T00:56:44.326Z,3.70
2023-04-02T00:59:26.612Z,3.60
2023-04-02T01:02:04.058Z,3.60
2023-04-02T01:04:34.586Z,3.60
2023-04-02T01:07:07.605Z,3.60
2023-04-02T01:10:01.627Z,3.60
2023-04-02T01:12:45.970Z,3.50
2023-04-02T01:15:26.412Z,3.50
2023-04-02T01:18:07.730Z,3.60
2023-04-02T01:21:04.178Z,3.50
2023-04-02T01:23:45.716Z,3.50
2023-04-02T01:26:39.942Z,3.40
2023-04-02T01:29:23.731Z,3.40
2023-04-02T01:31:53.172Z,3.30
2023-04-02T01:34:25.054Z,3.40
2023-04-02T01:37:14.037Z,3.30
2023-04-02T01:39:55.704Z,3.30
2023-04-02T01:42:22.537Z,3.30
2023-04-02T01:44:51.482Z,3.20
2023-04-02T01:47:25.565Z,3.20
2023-04-02T01:50:15.520Z,3.20
2023-04-02T01:52:44.849Z,3.10
2023-04-02T01:55:17.367Z,3.10
2023-04-02T01:57:49.513Z,3.10
2023-04-02T02:00:17.600Z,3.10
2023-04-02T02:02:50.689Z,3.10
2023-04-02T02:05:23.026Z,3.00
2023-04-02T02:07:52.847Z,3.00
2023-04-02T02:10:49.183Z,3.00
2023-04-02T02:13:21.429Z,3.00
2023-04-02T02:15:48.518Z,3.00
2023-04-02T02:18:23.545Z,2.90
2023-04-02T02:20:52.246Z,3.00
2023-04-02T02:23:21.807Z,2.90
2023-04-02T02:25:48.964Z,2.90
2023-04-02T02:28:31.317Z,2.90
2023-04-02T02:31:03.997Z,2.80
2023-04-02T02:33:42.190Z,2.80
2023-04-02T02:36:33.660Z,2.80
2023-04-02T02:39:13.900Z,2.80
2023-04-02T02:41:52.453Z,2.80
2023-04-02T02:44:33.114Z,2.70
2023-04-02T02:47:13.912Z,2.70
2023-04-02T02:49:44.575Z,2.70
2023-04-02T02:52:19.355Z,2.60
2023-04-02T02:55:12.978Z,2.60
2023-04-02T02:57:58.943Z,2.60
2023-04-02T03:00:31.218Z,2.50
2023-04-02T03:03:00.823Z,2.50
2023-04-02T03:05:31.362Z,2.50
2023-04-02T03:08:11.498Z,2.50
2023-04-02T03:11:17.616Z,2.40
2023-04-02T03:13:48.777Z,2.40
2023-04-02T03:16:32.484Z,2.40
2023-04-02T03:19:35.897Z,2.40
2023-04-02T03:22:14.689Z,2.40
2023-04-02T03:24:58.180Z,2.40
2023-04-02T03:27:32.720Z,2.40
2023-04-02T03:30:30.960Z,2.40
2023-04-02T03:33:05.081Z,2.30
2023-04-02T03:35:41.641Z,2.30
2023-04-02T03:38:23.148Z,2.30
2023-04-02T03:41:13.512Z,2.30
2023-04-02T03:43:44.386Z,2.30
2023-04-02T03:46:24.813Z,2.30
2023-04-02T03:49:00.313Z,2.30
2023-04-02T03:51:34.519Z,2.30
2023-04-02T03:54:03.436Z,2.30
2023-04-02T03:56:40.185Z,2.30
2023-04-02T03:59:22.353Z,2.30
2023-04-02T04:02:06.796Z,2.30
2023-04-02T04:04:34.939Z,2.30
2023-04-02T04:07:02.261Z,2.30
2023-04-02T04:09:36.293Z,2.20
2023-04-02T04:12:24.791Z,2.20
2023-04-02T04:15:23.202Z,2.20
2023-04-02T04:18:10.636Z,2.20
2023-04-02T04:20:58.117Z,2.20
2023-04-02T04:23:33.064Z,2.20
2023-04-02T04:26:11.960Z,2.20
2023-04-02T04:29:26.036Z,2.10
2023-04-02T04:31:55.989Z,2.10
2023-04-02T04:34:46.673Z,2.10
2023-04-02T04:37:29.174Z,2.10
2023-04-02T04:40:00.800Z,2.10
2023-04-02T04:42:33.284Z,2.10
2023-04-02T04:45:06.632Z,2.10
2023-04-02T04:47:38.428Z,2.10
2023-04-02T04:50:24.617Z,2.10
2023-04-02T04:52:52.756Z,2.20
2023-04-02T04:55:42.838Z,2.10
2023-04-02T04:58:35.636Z,2.10
2023-04-02T05:01:33.610Z,2.10
2023-04-02T05:04:25.615Z,2.20
2023-04-02T05:07:03.433Z,2.20
2023-04-02T05:09:51.238Z,2.20
2023-04-02T05:12:34.762Z,2.20
2023-04-02T05:15:20.396Z,2.20
2023-04-02T05:17:58.067Z,2.20
2023-04-02T05:20:42.709Z,2.20
2023-04-02T05:23:12.641Z,2.20
2023-04-02T05:25:52.631Z,2.20
2023-04-02T05:28:44.429Z,2.30
2023-04-02T05:31:17.566Z,2.20
2023-04-02T05:33:47.948Z,2.30
2023-04-02T05:36:29.266Z,2.30
2023-04-02T05:39:00.427Z,2.30
2023-04-02T05:41:46.007Z,2.30
2023-04-02T05:44:28.015Z,2.30
2023-04-02T05:47:07.066Z,2.30
2023-04-02T05:49:59.411Z,2.40
2023-04-02T05:52:32.281Z,2.40
2023-04-02T05:55:06.039Z,2.40
2023-04-02T05:57:45.871Z,2.40
2023-04-02T06:00:50.148Z,2.50
2023-04-02T06:03:58.740Z,2.50
2023-04-02T06:06:39.248Z,2.60
2023-04-02T06:09:15.737Z,2.60
2023-04-02T06:11:50.797Z,2.60
2023-04-02T06:14:19.281Z,2.70
2023-04-02T06:16:48.135Z,2.80
2023-04-02T06:19:31.106Z,2.80
2023-04-02T06:22:21.016Z,2.90
2023-04-02T06:24:55.272Z,3.00
2023-04-02T06:27:26.072Z,3.00
2023-04-02T06:29:58.390Z,3.00
2023-04-02T06:32:28.147Z,3.20
2023-04-02T06:34:55.868Z,3.20
2023-04-02T06:37:38.466Z,3.20
2023-04-02T06:40:32.392Z,3.30
2023-04-02T06:43:26.897Z,3.30
2023-04-02T06:46:20.277Z,3.40
2023-04-02T06:49:27.601Z,3.50
2023-04-02T06:52:01.771Z,3.50
2023-04-02T06:54:30.462Z,3.60
2023-04-02T06:57:01.983Z,3.80
2023-04-02T06:59:41.760Z,3.80
2023-04-02T07:02:36.859Z,3.90
2023-04-02T07:05:12.288Z,4.00
2023-04-02T07:07:44.875Z,4.20
2023-04-02T07:10:13.017Z,4.30
2023-04-02T07:12:40.317Z,4.40
2023-04-02T07:15:07.825Z,4.40
2023-04-02T07:17:35.247Z,4.50
2023-04-02T07:20:02.346Z,4.50
2023-04-02T07:22:29.713Z,4.40
2023-04-02T07:25:01.687Z,4.50
2023-04-02T07:27:28.596Z,4.50
2023-04-02T07:29:55.519Z,4.60
2023-04-02T07:32:22.472Z,4.70
2023-04-02T07:34:49.554Z,4.70
2023-04-02T07:37:16.581Z,4.80
2023-04-02T07:39:43.526Z,4.80
2023-04-02T07:42:10.674Z,4.80
2023-04-02T07:44:37.749Z,5.00
2023-04-02T07:47:04.800Z,5.00
2023-04-02T07:49:31.749Z,5.00
2023-04-02T07:51:59.003Z,5.00
2023-04-02T07:54:27.210Z,5.20
2023-04-02T07:56:54.313Z,5.30
2023-04-02T07:59:21.526Z,5.30
2023-04-02T08:01:48.600Z,5.30
2023-04-02T08:04:21.754Z,5.30
2023-04-02T08:06:49.707Z,5.30
2023-04-02T08:09:17.661Z,5.20
2023-04-02T08:11:46.473Z,5.20
2023-04-02T08:14:14.007Z,5.20
2023-04-02T08:17:07.302Z,5.20
2023-04-02T08:19:41.569Z,5.10
2023-04-02T08:22:18.946Z,5.00
2023-04-02T08:24:45.972Z,5.10
2023-04-02T08:27:15.226Z,5.10
2023-04-02T08:29:42.253Z,5.20
2023-04-02T08:32:12.279Z,5.30
2023-04-02T08:34:39.593Z,5.30
2023-04-02T08:37:06.577Z,5.40
2023-04-02T08:39:35.222Z,5.40
2023-04-02T08:42:23.951Z,5.40
2023-04-02T08:45:10.905Z,5.40
2023-04-02T08:47:51.193Z,5.40
2023-04-02T08:50:18.218Z,5.60
2023-04-02T08:52:45.390Z,5.60
2023-04-02T08:56:05.958Z,5.70
2023-04-02T08:58:39.194Z,5.70
2023-04-02T09:01:07.254Z,5.80
2023-04-02T09:03:42.742Z,5.80
2023-04-02T09:06:15.358Z,5.80
2023-04-02T09:08:46.196Z,5.80
2023-04-02T09:11:41.695Z,6.00
2023-04-02T09:14:36.018Z,6.10
2023-04-02T09:17:14.745Z,5.90
2023-04-02T09:19:45.038Z,5.80
2023-04-02T09:22:22.592Z,5.90
2023-04-02T09:24:58.006Z,6.00
2023-04-02T09:27:28.890Z,6.10
2023-04-02T09:30:03.381Z,6.20
2023-04-02T09:32:37.847Z,6.20
2023-04-02T09:35:24.654Z,6.30
2023-04-02T09:38:14.061Z,6.40
2023-04-02T09:40:56.867Z,6.50
2023-04-02T09:43:29.702Z,6.60
2023-04-02T09:45:59.419Z,6.60
2023-04-02T09:48:30.462Z,6.70
2023-04-02T09:51:08.224Z,6.60
2023-04-02T09:53:40.512Z,6.60
2023-04-02T09:56:14.997Z,6.60
2023-04-02T09:58:44.338Z,6.80
2023-04-02T10:01:33.502Z,6.80
2023-04-02T10:04:03.589Z,7.00
2023-04-02T10:06:31.891Z,6.90
2023-04-02T10:09:18.402Z,6.80
2023-04-02T10:11:46.971Z,6.80
2023-04-02T10:14:25.674Z,6.70
2023-04-02T10:17:07.031Z,7.00
2023-04-02T10:19:43.524Z,7.10
2023-04-02T10:22:16.612Z,7.20
2023-04-02T10:24:43.910Z,7.40
2023-04-02T10:27:17.870Z,7.50
2023-04-02T10:30:21.216Z,7.50
2023-04-02T10:33:06.210Z,7.50
2023-04-02T10:35:36.512Z,7.70
2023-04-02T10:38:19.613Z,7.70
2023-04-02T10:40:59.497Z,7.70
2023-04-02T10:43:50.832Z,7.80
2023-04-02T10:46:33.975Z,8.00
2023-04-02T10:49:29.083Z,7.90
2023-04-02T10:52:07.688Z,7.90
2023-04-02T10:54:43.603Z,8.10
2023-04-02T10:57:16.714Z,8.30
2023-04-02T11:00:09.224Z,7.90
2023-04-02T11:03:00.159Z,7.80
2023-04-02T11:05:45.172Z,8.50
2023-04-02T11:08:50.527Z,8.80
2023-04-02T11:11:23.508Z,9.00
2023-04-02T11:14:08.891Z,8.90
2023-04-02T11:16:42.453Z,9.00
2023-04-02T11:19:17.244Z,9.10
2023-04-02T11:22:06.762Z,9.00
2023-04-02T11:24:52.405Z,9.40
2023-04-02T11:27:29.343Z,9.50
2023-04-02T11:30:31.859Z,9.30
2023-04-02T11:33:39.328Z,9.80
2023-04-02T11:36:46.259Z,9.50
2023-04-02T11:39:17.413Z,9.80
2023-04-02T11:42:01.323Z,9.80
2023-04-02T11:44:28.459Z,9.70
2023-04-02T11:47:21.989Z,9.80
2023-04-02T11:49:55.446Z,9.70
2023-04-02T11:52:28.990Z,10.00
2023-04-02T11:55:19.027Z,9.80
2023-04-02T11:57:57.518Z,10.00
2023-04-02T12:00:53.052Z,9.80
2023-04-02T12:03:42.210Z,9.90
2023-04-02T12:06:39.849Z,9.80
2023-04-02T12:09:19.039Z,9.90
2023-04-02T12:11:51.014Z,9.70
2023-04-02T12:14:45.864Z,10.20
2023-04-02T12:17:24.966Z,9.70
2023-04-02T12:19:55.402Z,9.50
2023-04-02T12:22:27.820Z,9.60
2023-04-02T12:25:03.960Z,9.40
2023-04-02T12:27:32.518Z,9.10
2023-04-02T12:30:22.501Z,9.60
2023-04-02T12:32:50.462Z,9.20
2023-04-02T12:35:35.318Z,9.40
2023-04-02T12:38:04.361Z,9.40
2023-04-02T12:40:31.295Z,9.00
2023-04-02T12:42:58.345Z,9.20
2023-04-02T12:45:29.588Z,9.40
2023-04-02T12:48:02.333Z,9.10
2023-04-02T12:50:29.604Z,9.10
2023-04-02T12:52:58.964Z,9.50
2023-04-02T12:55:27.107Z,9.20
2023-04-02T12:58:01.733Z,9.30
2023-04-02T13:00:30.707Z,9.40
2023-04-02T13:03:03.188Z,9.40
2023-04-02T13:05:46.598Z,9.70
2023-04-02T13:08:22.674Z,9.60
2023-04-02T13:11:01.577Z,9.50
2023-04-02T13:13:38.523Z,9.40
2023-04-02T13:16:32.866Z,9.80
2023-04-02T13:19:10.761Z,10.40
2023-04-02T13:21:37.738Z,10.20
2023-04-02T13:24:05.163Z,10.40
2023-04-02T13:26:33.746Z,10.30
2023-04-02T13:29:03.428Z,10.50
2023-04-02T13:31:32.328Z,9.90
2023-04-02T13:33:59.556Z,9.60
2023-04-02T13:36:29.291Z,9.80
2023-04-02T13:38:57.067Z,10.20
2023-04-02T13:41:31.557Z,10.40
2023-04-02T13:44:01.426Z,10.90
2023-04-02T13:46:31.248Z,10.60
2023-04-02T13:48:58.958Z,10.50
2023-04-02T13:51:38.743Z,10.50
2023-04-02T13:54:16.258Z,10.00
2023-04-02T13:56:43.300Z,9.70
2023-04-02T13:59:10.683Z,9.70
2023-04-02T14:01:38.722Z,9.90
2023-04-02T14:04:06.548Z,10.30
2023-04-02T14:07:15.153Z,10.00
2023-04-02T14:10:01.637Z,10.10
2023-04-02T14:13:06.856Z,10.20
2023-04-02T14:16:06.932Z,9.80
2023-04-02T14:18:52.560Z,9.90
2023-04-02T14:21:41.548Z,9.90
2023-04-02T14:24:38.579Z,10.40
2023-04-02T14:27:23.769Z,10.70
2023-04-02T14:30:01.721Z,10.10
2023-04-02T14:32:55.057Z,10.20
2023-04-02T14:35:42.937Z,10.50
2023-04-02T14:38:21.486Z,10.60
2023-04-02T14:41:11.574Z,11.10
2023-04-02T14:43:43.641Z,10.50
2023-04-02T14:46:10.923Z,10.60
2023-04-02T14:49:16.668Z,10.50
2023-04-02T14:51:51.236Z,10.00
2023-04-02T14:54:21.273Z,11.00
2023-04-02T14:56:54.500Z,10.50
2023-04-02T14:59:36.787Z,10.50
2023-04-02T15:02:20.896Z,11.00
2023-04-02T15:05:28.111Z,10.50
2023-04-02T15:07:59.760Z,10.80
2023-04-02T15:10:30.997Z,11.00
2023-04-02T15:13:02.094Z,11.60
2023-04-02T15:15:47.972Z,11.40
2023-04-02T15:18:17.939Z,11.00
2023-04-02T15:20:54.154Z,10.90
2023-04-02T15:23:58.550Z,11.00
2023-04-02T15:26:53.344Z,11.00
2023-04-02T15:29:57.894Z,11.00
2023-04-02T15:32:34.235Z,11.00
2023-04-02T15:35:40.107Z,10.80
2023-04-02T15:38:38.025Z,10.40
2023-04-02T15:41:26.456Z,10.90
2023-04-02T15:44:14.836Z,10.90
2023-04-02T15:46:55.704Z,10.50
2023-04-02T15:50:00.419Z,10.60
2023-04-02T15:53:06.380Z,10.90
2023-04-02T15:56:12.505Z,10.70
2023-04-02T15:58:58.000Z,11.10
2023-04-02T16:01:36.606Z,11.10
2023-04-02T16:04:19.917Z,10.80
2023-04-02T16:07:19.190Z,10.30
2023-04-02T16:10:02.067Z,10.40
2023-04-02T16:12:33.677Z,10.10
2023-04-02T16:15:14.383Z,10.20
2023-04-02T16:17:48.391Z,10.20
2023-04-02T16:20:27.411Z,10.20
2023-04-02T16:23:04.284Z,10.50
2023-04-02T16:26:00.916Z,10.60
2023-04-02T16:28:33.617Z,10.30
2023-04-02T16:31:03.622Z,10.80
2023-04-02T16:33:49.034Z,10.50
2023-04-02T16:36:31.287Z,10.60
2023-04-02T16:39:20.368Z,10.00
2023-04-02T16:42:05.609Z,9.90
2023-04-02T16:44:56.045Z,9.90
2023-04-02T16:47:45.933Z,9.70
2023-04-02T16:50:31.465Z,9.70
2023-04-02T16:53:22.307Z,9.80
2023-04-02T16:56:12.632Z,10.00
2023-04-02T16:59:11.752Z,9.50
2023-04-02T17:01:53.943Z,9.40
2023-04-02T17:04:50.476Z,9.30
2023-04-02T17:07:29.411Z,9.30
2023-04-02T17:10:24.395Z,9.10
2023-04-02T17:13:00.303Z,8.60
2023-04-02T17:15:32.243Z,8.30
2023-04-02T17:18:01.746Z,8.10
2023-04-02T17:20:29.092Z,7.90
2023-04-02T17:22:56.582Z,7.80
2023-04-02T17:25:35.186Z,7.70
2023-04-02T17:28:02.596Z,7.60
2023-04-02T17:30:49.343Z,7.40
2023-04-02T17:33:18.336Z,7.30
2023-04-02T17:36:24.962Z,7.20
2023-04-02T17:39:20.296Z,7.20
2023-04-02T17:42:06.337Z,7.10
2023-04-02T17:44:48.573Z,7.10
2023-04-02T17:47:22.421Z,7.00
2023-04-02T17:50:09.690Z,7.00
2023-04-02T17:52:46.535Z,6.80
2023-04-02T17:55:32.428Z,6.80
2023-04-02T17:58:28.021Z,6.80
2023-04-02T18:01:23.092Z,6.70
2023-04-02T18:04:18.054Z,6.60
2023-04-02T18:06:49.686Z,6.60
2023-04-02T18:09:47.744Z,6.50
2023-04-02T18:12:40.925Z,6.50
2023-04-02T18:15:46.267Z,6.40
2023-04-02T18:18:26.658Z,6.40
2023-04-02T18:21:11.860Z,6.30
2023-04-02T18:24:16.571Z,6.30
2023-04-02T18:27:05.433Z,6.20
2023-04-02T18:30:06.432Z,6.20
2023-04-02T18:32:48.903Z,6.10
2023-04-02T18:35:32.692Z,6.10
2023-04-02T18:37:59.622Z,6.00
2023-04-02T18:40:29.546Z,6.00
2023-04-02T18:43:18.925Z,6.00
2023-04-02T18:46:05.465Z,5.90
2023-04-02T18:48:45.767Z,5.80
2023-04-02T18:51:24.126Z,5.80
2023-04-02T18:54:09.967Z,5.70
2023-04-02T18:56:41.558Z,5.70
2023-04-02T18:59:39.958Z,5.70
2023-04-02T19:02:29.794Z,5.60
2023-04-02T19:05:21.842Z,5.60
2023-04-02T19:07:52.474Z,5.50
2023-04-02T19:10:33.274Z,5.50
2023-04-02T19:13:00.462Z,5.40
2023-04-02T19:15:39.428Z,5.40
2023-04-02T19:18:24.584Z,5.40
2023-04-02T19:20:58.590Z,5.40
2023-04-02T19:23:45.098Z,5.40
2023-04-02T19:26:25.096Z,5.30
2023-04-02T19:29:02.367Z,5.30
2023-04-02T19:31:44.680Z,5.30
2023-04-02T19:34:30.526Z,5.30
2023-04-02T19:37:14.025Z,5.20
2023-04-02T19:40:08.876Z,5.20
2023-04-02T19:42:51.390Z,5.20
2023-04-02T19:45:54.611Z,5.20
2023-04-02T19:48:27.653Z,5.20
2023-04-02T19:50:54.519Z,5.20
2023-04-02T19:53:21.605Z,5.10
2023-04-02T19:55:48.661Z,5.10
2023-04-02T19:58:42.067Z,5.10
2023-04-02T20:01:09.094Z,5.20
2023-04-02T20:03:36.198Z,5.10
2023-04-02T20:06:03.310Z,5.10
2023-04-02T20:08:30.514Z,5.10
2023-04-02T20:10:58.715Z,5.10
2023-04-02T20:13:25.872Z,5.10
2023-04-02T20:15:53.648Z,5.10
2023-04-02T20:18:20.602Z,5.10
2023-04-02T20:20:48.968Z,5.00
2023-04-02T20:23:16.858Z,5.00
2023-04-02T20:25:55.097Z,4.90
2023-04-02T20:28:24.033Z,5.00
2023-04-02T20:30:51.317Z,4.90
2023-04-02T20:33:21.288Z,4.80
2023-04-02T20:35:49.841Z,4.80
2023-04-02T20:38:17.649Z,4.70
2023-04-02T20:40:52.048Z,4.70
2023-04-02T20:43:19.233Z,4.70
2023-04-02T20:46:08.369Z,4.70
2023-04-02T20:48:38.299Z,4.70
2023-04-02T20:51:08.171Z,4.60
2023-04-02T20:53:36.933Z,4.60
2023-04-02T20:56:06.443Z,4.60
2023-04-02T20:58:35.600Z,4.60
2023-04-02T21:01:19.476Z,4.50
2023-04-02T21:03:47.142Z,4.50
2023-04-02T21:06:19.238Z,4.50
2023-04-02T21:08:46.846Z,4.50
2023-04-02T21:11:14.228Z,4.50
2023-04-02T21:13:43.944Z,4.40
2023-04-02T21:16:28.379Z,4.40
2023-04-02T21:18:58.287Z,4.40
2023-04-02T21:21:26.248Z,4.40
2023-04-02T21:24:02.203Z,4.30
2023-04-02T21:26:33.435Z,4.30
2023-04-02T21:29:02.102Z,4.30
2023-04-02T21:31:33.855Z,4.20
2023-04-02T21:34:00.924Z,4.10
2023-04-02T21:36:36.764Z,4.10
2023-04-02T21:39:09.868Z,4.10
2023-04-02T21:41:39.646Z,4.00
2023-04-02T21:44:09.194Z,4.00
2023-04-02T21:46:38.642Z,3.90
2023-04-02T21:49:08.153Z,3.90
2023-04-02T21:51:39.647Z,3.80
2023-04-02T21:54:07.803Z,3.80
2023-04-02T21:56:37.742Z,3.80
2023-04-02T21:59:06.366Z,3.80
2023-04-02T22:01:37.430Z,3.80
2023-04-02T22:04:09.392Z,3.80
2023-04-02T22:06:41.048Z,3.80
2023-04-02T22:09:14.472Z,3.70
2023-04-02T22:11:51.565Z,3.70
2023-04-02T22:14:18.563Z,3.70
2023-04-02T22:16:45.798Z,3.80
2023-04-02T22:19:15.215Z,3.80
2023-04-02T22:21:42.541Z,3.70
2023-04-02T22:24:13.766Z,3.70
2023-04-02T22:26:40.956Z,3.70
2023-04-02T22:29:08.277Z,3.60
2023-04-02T22:31:35.634Z,3.60
2023-04-02T22:34:04.741Z,3.60
2023-04-02T22:36:32.237Z,3.60
2023-04-02T22:39:00.012Z,3.50
2023-04-02T22:41:29.417Z,3.40
2023-04-02T22:43:57.602Z,3.40
2023-04-02T22:46:26.713Z,3.30
2023-04-02T22:48:54.325Z,3.30
2023-04-02T22:51:23.651Z,3.30
2023-04-02T22:53:53.012Z,3.30
2023-04-02T22:56:22.234Z,3.30
2023-04-02T22:58:50.699Z,3.30
2023-04-02T23:01:24.126Z,3.20
2023-04-02T23:03:53.464Z,3.30
2023-04-02T23:06:20.464Z,3.20
2023-04-02T23:08:49.328Z,3.20
2023-04-02T23:11:23.830Z,3.10
2023-04-02T23:13:52.890Z,3.10
2023-04-02T23:16:23.145Z,3.10
2023-04-02T23:18:50.599Z,3.00
2023-04-02T23:21:19.213Z,3.10
2023-04-02T23:23:48.394Z,3.00
2023-04-02T23:26:34.681Z,3.00
2023-04-02T23:29:02.390Z,3.00
2023-04-02T23:31:29.824Z,2.90
2023-04-02T23:33:56.825Z,3.10
2023-04-02T23:36:25.427Z,2.90
2023-04-02T23:38:55.435Z,2.90
2023-04-02T23:41:24.280Z,2.80
2023-04-02T23:43:51.584Z,2.80
2023-04-02T23:46:19.671Z,2.70
2023-04-02T23:48:47.778Z,2.70
2023-04-02T23:51:16.988Z,2.70
2023-04-02T23:53:44.312Z,2.60
2023-04-02T23:56:11.696Z,2.60
2023-04-02T23:58:38.714Z,2.50
